Home   Weather   India   Unnao   Past weeks
Flag for India

Past Weather in Unnao, Uttar Pradesh, India — Yesterday and Last 2 Weeks

Currently: 93 °F. Broken clouds. (Weather station: Lucknow / Amausi, India). See more current weather

Past Weather in Unnao — Graph

°F

Unnao Temperature Yesterday

Maximum temperature yesterday: 93 °F (at 3:30 pm)
Minimum temperature yesterday: 75 °F (at 6:00 am)
Average temperature yesterday: 84 °F

High & Low Weather Summary for the Past Weeks

 TemperatureHumidityPressure
High106 °F (Apr 28, 3:30 pm)100% (Apr 22, 12:00 am)29.92 "Hg (Apr 22, 12:00 am)
Low63 °F (Apr 22, 12:00 am)14% (Apr 26, 4:00 pm)29.59 "Hg (May 4, 3:30 pm)
Average86 °F51%29.73 "Hg
* Reported Apr 21 6:30 pm — May 6 6:30 pm, Unnao. Weather by CustomWeather, © 2021

Note: Actual official high and low records may vary slightly from our data, if they occured in-between our weather recording intervals... More about our weather records

Unnao Weather History for the Previous 24 Hours

Scroll right to see more
 ConditionsComfort  
Time TempWeatherWind HumidityBarometerVisibility
6:30 pm
Thu, May 6
93 °FBroken clouds.5 mph53%29.68 "Hg3 mi
6:00 pm93 °FHaze.7 mph53%29.65 "Hg3 mi
5:30 pm95 °FHaze.7 mph50%29.68 "Hg3 mi
5:00 pm95 °FScattered clouds.7 mph50%29.68 "Hg3 mi
4:30 pm95 °FScattered clouds.9 mph50%29.68 "Hg3 mi
4:00 pm95 °FScattered clouds.7 mph50%29.68 "Hg3 mi
3:30 pm95 °FScattered clouds.7 mph53%29.68 "Hg3 mi
3:00 pm95 °FScattered clouds.9 mph53%29.71 "Hg3 mi
2:30 pm95 °FBroken clouds.9 mph53%29.74 "Hg3 mi
2:00 pm91 °FScattered clouds.8 mph59%29.74 "Hg3 mi
1:30 pm91 °FScattered clouds.6 mph59%29.77 "Hg3 mi
1:00 pm91 °FScattered clouds.6 mph59%29.80 "Hg3 mi
12:30 pm91 °FScattered clouds.2 mph59%29.80 "Hg3 mi
12:00 pm90 °FScattered clouds.5 mph63%29.80 "Hg3 mi
11:30 am90 °FScattered clouds.9 mph59%29.80 "Hg3 mi
11:00 am88 °FScattered clouds.10 mph62%29.80 "Hg3 mi
10:30 am88 °FScattered clouds.8 mph62%29.83 "Hg3 mi
10:00 am86 °FHaze.8 mph66%29.80 "Hg3 mi
9:00 am84 °FHaze.13 mph66%29.80 "Hg2 mi
8:30 am81 °FHaze.12 mph74%29.80 "Hg2 mi
8:00 am81 °FHaze.12 mph74%29.80 "Hg2 mi
7:30 am79 °FHaze.12 mph79%29.77 "Hg2 mi
6:30 am77 °FScattered clouds.12 mph79%29.77 "Hg2 mi
6:00 am77 °FScattered clouds.12 mph79%29.74 "Hg2 mi
5:30 am77 °FHaze.12 mph79%29.74 "Hg2 mi
5:00 am77 °FPassing clouds.8 mph83%29.74 "Hg2 mi
4:30 am79 °FPassing clouds.8 mph79%29.71 "Hg2 mi
4:00 am79 °FHaze.8 mph79%29.71 "Hg2 mi
3:30 am79 °FPassing clouds.6 mph84%29.71 "Hg2 mi
3:00 am81 °FPassing clouds.6 mph79%29.71 "Hg2 mi
2:30 am81 °FPassing clouds.6 mph79%29.71 "Hg2 mi
2:00 am81 °FPassing clouds.6 mph79%29.71 "Hg2 mi
1:30 am82 °FPassing clouds.6 mph74%29.71 "Hg2 mi
1:00 am82 °FPassing clouds.7 mph74%29.71 "Hg2 mi
12:30 am82 °FHaze.7 mph74%29.71 "Hg2 mi
12:00 am82 °FHaze.9 mph70%29.71 "Hg2 mi
11:30 pm
Wed, May 5
84 °FHaze.12 mph66%29.71 "Hg2 mi
11:00 pm86 °FHaze.5 mph62%29.71 "Hg2 mi
10:30 pm86 °FHaze.6 mph62%29.71 "Hg2 mi
10:00 pm86 °FHaze.6 mph62%29.71 "Hg2 mi
9:30 pm86 °FHaze.5 mph62%29.71 "Hg2 mi
9:00 pm86 °FHaze.5 mph62%29.68 "Hg2 mi
8:00 pm86 °FHaze.5 mph62%29.65 "Hg2 mi
7:30 pm88 °FHaze.3 mph59%29.65 "Hg3 mi
7:00 pm90 °FHaze.3 mph55%29.65 "Hg3 mi
Weather by CustomWeather, © 2021

See weather overview